Time;durP1;ratioP1;P1;durP2;ratioP2;P2;SDS_P1;SDS_P2;PMS_P1;PMS_P2;Temp;Humidity;BMP_temperature;BMP_pressure;BME280_temperature;BME280_humidity;BME280_pressure;Samples;Min_cycle;Max_cycle;Signal;HPM_P1;HPM_P2
2022/01/20 00:03:19;;;;;;;14.27;4.68;;;;;;;4.38;86.16;100534.19;5084124;28;20048;-86
2022/01/20 00:27:28;;;;;;;13.32;4.63;;;;;;;4.12;87.18;100525.00;5087498;28;20061;-86
2022/01/20 00:32:36;;;;;;;;;;;;;;;4.03;86.47;100527.88;5086080;28;20024;-86
2022/01/20 00:37:31;;;;;;;19.58;6.80;;;;;;;3.96;86.93;100535.13;5086843;28;20024;-86
2022/01/20 00:39:58;;;;;;;29.52;7.78;;;;;;;3.68;87.61;100536.03;5087868;28;20020;-86
2022/01/20 00:42:23;;;;;;;29.48;7.85;;;;;;;3.94;88.35;100534.47;5087062;28;20024;-86
2022/01/20 00:44:50;;;;;;;30.85;5.88;;;;;;;3.79;87.21;100538.16;5107002;28;20035;-87
2022/01/20 00:47:16;;;;;;;30.05;5.75;;;;;;;4.24;85.98;100536.88;5087263;28;20523;-86
2022/01/20 00:49:43;;;;;;;25.75;5.65;;;;;;;4.27;85.85;100530.22;5084590;28;20024;-88
2022/01/20 00:52:09;;;;;;;19.52;6.50;;;;;;;3.88;86.33;100530.72;5087774;28;20384;-86
2022/01/20 00:54:35;;;;;;;27.60;6.22;;;;;;;3.79;88.07;100531.91;5086268;28;20030;-85
2022/01/20 00:57:01;;;;;;;16.60;6.38;;;;;;;4.02;87.24;100537.00;5086106;28;20071;-86
2022/01/20 00:59:28;;;;;;;17.95;7.43;;;;;;;4.09;86.02;100545.94;5086652;28;20463;-86
2022/01/20 01:01:54;;;;;;;20.92;7.00;;;;;;;4.34;85.29;100533.78;5087434;28;20367;-85
2022/01/20 01:04:20;;;;;;;18.00;6.85;;;;;;;4.23;85.21;100535.19;5087192;28;20659;-86
2022/01/20 01:09:31;;;;;;;21.63;5.25;;;;;;;4.07;86.82;100539.91;5087816;28;20458;-86
2022/01/20 01:12:01;;;;;;;16.52;5.25;;;;;;;4.11;86.35;100550.31;5086217;28;20428;-86
2022/01/20 01:14:29;;;;;;;42.08;9.07;;;;;;;4.43;85.63;100543.34;5086865;28;20028;-87
2022/01/20 01:24:42;;;;;;;16.13;5.68;;;;;;;4.21;86.07;100529.16;5087084;28;20049;-85
2022/01/20 01:27:10;;;;;;;18.67;6.72;;;;;;;4.13;87.55;100523.97;5088342;28;20542;-85
2022/01/20 01:30:23;;;;;;;18.00;6.55;;;;;;;4.42;85.21;100524.66;5087204;28;20275;-86
2022/01/20 01:32:43;;;;;;;28.27;7.78;;;;;;;4.11;86.88;100517.94;5073814;28;20171;-86
2022/01/20 01:35:10;;;;;;;21.45;6.40;;;;;;;4.46;84.67;100523.19;5079048;28;20044;-86
2022/01/20 01:38:25;;;;;;;20.33;6.25;;;;;;;4.25;86.46;100519.63;5085633;28;20367;-85
2022/01/20 01:40:28;;;;;;;25.85;8.25;;;;;;;3.98;86.98;100524.94;5083814;28;20070;-87
2022/01/20 01:42:54;;;;;;;30.00;8.00;;;;;;;4.05;86.65;100520.41;5064187;28;20107;-87
2022/01/20 01:45:32;;;;;;;34.58;7.00;;;;;;;4.42;86.44;100535.44;5085344;28;20031;-85
2022/01/20 01:47:58;;;;;;;29.50;9.65;;;;;;;3.89;88.13;100534.25;5086068;28;20130;-86
2022/01/20 01:50:24;;;;;;;46.72;7.65;;;;;;;4.38;85.04;100528.78;5066053;28;20123;-86
2022/01/20 01:52:51;;;;;;;29.75;5.90;;;;;;;3.79;87.66;100527.38;5067359;28;20052;-86
2022/01/20 01:55:16;;;;;;;27.05;6.40;;;;;;;3.89;87.28;100516.19;5084081;28;20063;-86
2022/01/20 01:57:43;;;;;;;22.02;7.32;;;;;;;3.71;88.30;100519.44;5085430;28;20368;-85
2022/01/20 02:00:10;;;;;;;23.90;7.20;;;;;;;3.82;87.71;100521.56;5084470;28;20040;-87
2022/01/20 02:02:36;;;;;;;13.45;5.35;;;;;;;4.07;87.18;100522.88;5084752;28;20054;-86
2022/01/20 02:05:05;;;;;;;43.80;7.00;;;;;;;3.88;86.62;100532.59;5085455;28;20020;-86
2022/01/20 02:18:42;;;;;;;19.92;6.22;;;;;;;3.91;87.22;100541.09;5086099;28;20233;-86
2022/01/20 02:21:23;;;;;;;25.05;7.75;;;;;;;4.08;87.00;100527.28;5072482;28;20020;-86
2022/01/20 02:23:49;;;;;;;18.33;6.32;;;;;;;3.74;87.37;100530.66;5084776;28;20020;-86
2022/01/20 02:26:14;;;;;;;31.23;8.40;;;;;;;3.50;88.65;100534.66;5086475;28;20043;-86
2022/01/20 02:28:40;;;;;;;22.05;6.93;;;;;;;3.44;89.18;100532.81;5082187;28;20092;-85
2022/01/20 02:31:06;;;;;;;21.80;7.70;;;;;;;3.27;88.64;100530.41;5086681;28;20020;-86
2022/01/20 02:33:32;;;;;;;17.02;5.53;;;;;;;3.37;89.78;100530.06;5085602;28;20349;-85
2022/01/20 02:36:07;;;;;;;14.52;4.78;;;;;;;3.94;87.41;100524.53;5085949;28;20042;-85
2022/01/20 02:38:38;;;;;;;20.60;5.80;;;;;;;3.97;86.55;100507.09;5085840;28;20058;-86
2022/01/20 02:46:35;;;;;;;16.10;4.85;;;;;;;3.93;85.92;100524.72;5105946;28;20051;-85
2022/01/20 02:49:01;;;;;;;18.45;4.88;;;;;;;3.74;86.89;100519.88;5107277;28;20023;-86
2022/01/20 02:51:26;;;;;;;18.02;5.82;;;;;;;3.55;88.10;100526.00;5105755;28;20027;-86
2022/01/20 02:53:52;;;;;;;30.00;8.43;;;;;;;3.82;86.72;100526.94;5106718;28;20019;-86
2022/01/20 02:56:18;;;;;;;26.27;6.22;;;;;;;3.82;86.00;100524.25;5106252;28;20031;-86
2022/01/20 02:58:43;;;;;;;22.60;6.25;;;;;;;3.87;86.41;100522.81;5106096;28;20537;-86
2022/01/20 03:04:12;;;;;;;18.80;5.57;;;;;;;3.94;85.68;100518.28;5104498;28;20339;-85
2022/01/20 03:06:37;;;;;;;12.25;3.22;;;;;;;4.05;84.63;100523.09;5106500;28;20295;-86
2022/01/20 03:09:05;;;;;;;19.80;4.68;;;;;;;3.87;86.65;100522.81;5105988;28;20114;-86
2022/01/20 03:11:30;;;;;;;24.42;4.68;;;;;;;3.74;85.91;100519.06;5106122;28;20039;-86
2022/01/20 03:13:55;;;;;;;15.77;4.90;;;;;;;3.70;86.52;100518.59;5093798;28;20073;-86
2022/01/20 03:16:21;;;;;;;21.35;5.82;;;;;;;3.54;86.99;100525.16;5085332;28;20356;-85
2022/01/20 03:18:46;;;;;;;16.67;5.30;;;;;;;3.53;87.68;100517.28;5086332;28;20024;-86
2022/01/20 03:21:11;;;;;;;46.83;5.93;;;;;;;3.48;89.23;100532.19;5066498;28;20074;-85
2022/01/20 03:23:36;;;;;;;16.27;5.53;;;;;;;3.60;86.63;100527.06;5086385;28;20048;-86
2022/01/20 03:26:02;;;;;;;14.63;5.40;;;;;;;3.91;86.86;100529.47;5084958;28;20051;-86
2022/01/20 03:28:27;;;;;;;16.55;5.07;;;;;;;3.95;85.50;100536.13;5067609;28;20286;-86
2022/01/20 03:30:53;;;;;;;18.15;4.78;;;;;;;3.44;87.13;100532.81;5085847;28;20024;-86
2022/01/20 03:33:18;;;;;;;14.30;4.43;;;;;;;3.78;86.62;100525.72;5084894;28;20012;-86
2022/01/20 03:35:44;;;;;;;18.85;5.28;;;;;;;3.57;87.25;100530.16;5068014;28;20398;-86
2022/01/20 03:38:10;;;;;;;23.63;5.00;;;;;;;3.75;86.34;100520.69;5100335;28;20848;-84
2022/01/20 03:40:35;;;;;;;12.07;3.42;;;;;;;3.79;86.02;100510.34;5081864;28;20044;-86
2022/01/20 03:43:01;;;;;;;24.20;5.07;;;;;;;3.32;87.72;100509.06;5089226;28;20028;-87
2022/01/20 03:45:27;;;;;;;17.38;4.28;;;;;;;3.49;86.91;100500.66;5106381;28;20463;-86
2022/01/20 03:47:55;;;;;;;21.23;5.93;;;;;;;3.58;86.95;100487.84;5086769;28;20040;-86
2022/01/20 03:53:15;;;;;;;16.38;5.32;;;;;;;3.77;85.50;100488.97;5069747;28;20521;-86
2022/01/20 03:55:41;;;;;;;18.98;4.65;;;;;;;3.55;85.81;100497.16;5085409;28;20028;-86
2022/01/20 03:58:07;;;;;;;16.98;4.97;;;;;;;3.23;87.41;100486.84;5071435;28;20028;-85
2022/01/20 04:00:32;;;;;;;17.77;4.22;;;;;;;3.64;86.41;100473.53;5067063;28;20027;-86
2022/01/20 04:02:57;;;;;;;17.05;4.30;;;;;;;3.46;85.83;100480.31;5069927;28;20028;-85
2022/01/20 04:05:23;;;;;;;11.55;4.45;;;;;;;3.88;85.03;100486.72;5069318;28;20062;-86
2022/01/20 04:07:48;;;;;;;14.32;4.10;;;;;;;3.37;85.86;100485.06;5068690;28;20033;-86
2022/01/20 04:10:13;;;;;;;11.32;2.72;;;;;;;3.67;85.42;100489.34;5069972;28;20029;-86
2022/01/20 04:12:38;;;;;;;15.30;3.45;;;;;;;3.78;84.82;100490.66;5070956;28;20674;-85
2022/01/20 04:15:08;;;;;;;10.68;3.60;;;;;;;3.76;85.03;100492.72;5110086;28;20429;-86
2022/01/20 04:17:35;;;;;;;18.02;4.97;;;;;;;3.18;87.68;100499.22;5108767;28;20458;-86
2022/01/20 04:20:02;;;;;;;17.77;3.90;;;;;;;3.47;86.40;100498.19;5109633;28;20102;-86
2022/01/20 04:22:30;;;;;;;18.30;6.70;;;;;;;3.51;86.64;100506.69;5089240;28;20402;-86
2022/01/20 04:24:56;;;;;;;12.25;3.65;;;;;;;3.67;86.83;100496.59;5088449;28;20646;-86
2022/01/20 04:27:21;;;;;;;16.85;4.78;;;;;;;3.49;87.24;100500.66;5089581;28;20039;-87
2022/01/20 04:29:46;;;;;;;20.85;5.78;;;;;;;3.69;87.13;100494.53;5088267;28;20048;-86
2022/01/20 04:32:12;;;;;;;17.40;5.13;;;;;;;3.60;86.87;100504.69;5090190;28;20036;-87
2022/01/20 04:34:52;;;;;;;22.13;5.30;;;;;;;3.44;87.22;100505.84;5085079;28;20044;-86
2022/01/20 04:37:17;;;;;;;18.75;5.90;;;;;;;3.08;89.08;100504.97;5089111;28;20081;-87
2022/01/20 04:39:47;;;;;;;22.23;5.20;;;;;;;3.30;88.35;100503.03;5088270;28;20024;-87
2022/01/20 04:42:13;;;;;;;14.75;3.85;;;;;;;3.34;87.46;100493.53;5088771;28;20046;-86
2022/01/20 04:44:46;;;;;;;18.15;4.65;;;;;;;3.27;89.39;100514.22;5107077;28;20027;-87
2022/01/20 04:57:57;;;;;;;19.38;4.93;;;;;;;3.84;85.92;100521.38;5088389;28;20506;-87
2022/01/20 05:00:22;;;;;;;17.52;4.07;;;;;;;3.64;87.15;100516.69;5087678;28;20024;-86
2022/01/20 05:02:47;;;;;;;20.75;5.63;;;;;;;3.31;87.38;100534.38;5088577;28;20027;-86
2022/01/20 05:05:13;;;;;;;10.18;3.67;;;;;;;3.89;86.14;100518.88;5087650;28;20027;-86
2022/01/20 05:07:38;;;;;;;12.00;4.43;;;;;;;4.15;84.80;100520.00;5088295;28;20074;-86
2022/01/20 05:10:07;;;;;;;13.60;4.18;;;;;;;4.11;84.81;100523.34;5088629;28;20020;-87
2022/01/20 05:13:02;;;;;;;23.52;6.45;;;;;;;3.59;86.30;100528.09;5088403;28;20479;-86
2022/01/20 05:15:22;;;;;;;22.63;5.72;;;;;;;3.84;85.69;100518.69;5108894;28;20051;-87
2022/01/20 05:17:48;;;;;;;11.52;4.20;;;;;;;4.06;85.46;100542.84;5107368;28;20069;-87
2022/01/20 05:20:14;;;;;;;17.08;4.47;;;;;;;3.89;85.50;100547.72;5108019;28;20035;-86
2022/01/20 05:22:39;;;;;;;15.02;5.32;;;;;;;3.87;85.80;100533.59;5087739;28;20028;-86
2022/01/20 05:25:06;;;;;;;13.07;4.45;;;;;;;3.64;86.65;100540.97;5088607;28;20172;-86
2022/01/20 05:27:31;;;;;;;14.38;5.68;;;;;;;3.27;88.14;100543.88;5088071;28;20094;-88
2022/01/20 05:29:57;;;;;;;16.02;4.28;;;;;;;3.92;86.54;100545.50;5086970;28;20035;-86
2022/01/20 05:32:23;;;;;;;8.45;3.47;;;;;;;3.76;86.00;100535.88;5088141;28;20043;-86
2022/01/20 05:34:48;;;;;;;16.15;6.50;;;;;;;3.94;85.14;100550.69;5086916;28;20048;-86
2022/01/20 05:37:14;;;;;;;12.48;4.35;;;;;;;3.75;85.98;100542.28;5088475;28;20028;-86
2022/01/20 05:39:41;;;;;;;8.70;4.30;;;;;;;3.66;86.44;100557.78;5068487;28;20034;-87
2022/01/20 05:42:07;;;;;;;9.18;3.45;;;;;;;3.65;85.64;100558.84;5069709;28;20100;-86
2022/01/20 05:44:32;;;;;;;11.27;3.75;;;;;;;3.17;87.91;100563.09;5104871;28;20070;-87
2022/01/20 05:46:58;;;;;;;9.13;3.30;;;;;;;3.55;87.29;100567.28;5096906;28;20055;-87
2022/01/20 05:49:23;;;;;;;13.25;3.75;;;;;;;3.56;87.13;100568.94;5088125;28;20363;-86
2022/01/20 05:51:54;;;;;;;11.10;3.78;;;;;;;3.73;86.58;100572.16;5086668;28;20149;-86
2022/01/20 05:54:21;;;;;;;11.13;4.05;;;;;;;3.45;87.94;100605.38;5087785;28;20081;-86
2022/01/20 05:56:46;;;;;;;11.70;4.72;;;;;;;3.51;87.46;100603.75;5086345;28;20084;-87
2022/01/20 05:59:26;;;;;;;4.03;1.98;;;;;;;3.36;85.53;100602.00;5069460;28;20024;-86
2022/01/20 06:01:55;;;;;;;10.65;2.40;;;;;;;3.52;85.26;100597.31;5087180;28;20063;-87
2022/01/20 06:04:20;;;;;;;4.03;1.80;;;;;;;3.47;84.22;100599.78;5086985;28;20028;-86
2022/01/20 06:06:46;;;;;;;4.30;2.00;;;;;;;3.70;84.47;100604.91;5087603;28;20032;-86
2022/01/20 06:09:11;;;;;;;4.03;1.65;;;;;;;3.64;83.85;100607.59;5086146;28;20035;-87
2022/01/20 06:11:37;;;;;;;9.57;2.10;;;;;;;3.39;86.00;100611.56;5087593;28;20020;-86
2022/01/20 06:14:04;;;;;;;11.55;2.83;;;;;;;3.31;84.86;100601.78;5081114;28;20023;-86
2022/01/20 06:16:29;;;;;;;17.13;3.03;;;;;;;3.31;84.24;100606.31;5107594;28;20548;-86
2022/01/20 06:18:54;;;;;;;8.07;2.67;;;;;;;3.48;84.64;100612.22;5106354;28;20023;-86
2022/01/20 06:21:20;;;;;;;6.72;2.47;;;;;;;3.02;85.97;100608.97;5096772;28;20495;-86
2022/01/20 06:23:45;;;;;;;4.75;2.00;;;;;;;3.05;86.76;100608.59;5086909;28;20031;-86
2022/01/20 06:29:14;;;;;;;6.47;2.90;;;;;;;2.86;86.91;100626.25;5080813;28;20075;-85
2022/01/20 06:31:39;;;;;;;8.13;3.00;;;;;;;3.18;86.01;100634.81;5086348;28;20051;-86
2022/01/20 06:34:04;;;;;;;7.30;2.25;;;;;;;3.23;85.29;100642.34;5086984;28;20048;-86
2022/01/20 06:36:30;;;;;;;23.67;3.20;;;;;;;3.03;85.89;100643.00;5068689;28;20024;-86
2022/01/20 06:38:55;;;;;;;8.85;2.78;;;;;;;3.36;85.72;100647.81;5085954;28;20012;-86
2022/01/20 06:41:20;;;;;;;8.90;2.38;;;;;;;3.22;84.67;100656.81;5102438;28;20021;-86
2022/01/20 06:43:47;;;;;;;12.25;2.90;;;;;;;3.44;84.61;100664.91;5111985;27;20015;-86
2022/01/20 06:46:12;;;;;;;11.68;2.88;;;;;;;3.30;84.30;100670.16;5102952;28;20056;-86
2022/01/20 06:48:37;;;;;;;11.60;2.80;;;;;;;3.53;84.06;100669.13;5085914;28;20048;-86
2022/01/20 06:51:02;;;;;;;12.85;3.75;;;;;;;3.38;83.83;100672.72;5086671;28;20437;-86
2022/01/20 06:53:28;;;;;;;10.50;2.65;;;;;;;3.37;83.32;100671.09;5068348;28;20092;-87
2022/01/20 06:55:53;;;;;;;12.07;2.90;;;;;;;3.09;83.75;100674.53;5085968;28;20539;-85
2022/01/20 06:58:21;;;;;;;12.88;2.78;;;;;;;3.30;83.81;100675.56;5085837;28;20032;-86
2022/01/20 07:00:46;;;;;;;11.05;3.00;;;;;;;3.19;84.16;100678.78;5084726;28;20024;-86
2022/01/20 07:03:12;;;;;;;3.70;1.45;;;;;;;3.34;84.23;100690.31;5086774;28;20024;-86
2022/01/20 07:05:37;;;;;;;7.10;1.92;;;;;;;3.51;83.72;100700.84;5084728;28;20032;-87
2022/01/20 07:08:02;;;;;;;15.45;3.47;;;;;;;3.41;81.19;100713.81;5086441;28;20060;-87
2022/01/20 07:10:28;;;;;;;9.30;2.25;;;;;;;2.61;83.77;100727.06;5085220;28;20022;-86
2022/01/20 07:12:53;;;;;;;24.02;3.30;;;;;;;2.75;84.53;100728.06;5070722;28;20394;-86
2022/01/20 07:15:20;;;;;;;12.27;2.22;;;;;;;3.10;82.43;100731.97;5106882;28;20164;-87
2022/01/20 07:17:45;;;;;;;11.88;3.05;;;;;;;3.48;81.77;100728.19;5087537;28;20059;-86
2022/01/20 07:20:12;;;;;;;9.20;2.28;;;;;;;3.29;81.28;100740.47;5105948;28;20082;-86
2022/01/20 07:22:50;;;;;;;26.40;4.35;;;;;;;3.03;82.36;100753.47;5084412;28;20478;-86
2022/01/20 07:25:16;;;;;;;12.98;3.05;;;;;;;3.09;80.08;100750.00;5067974;28;20679;-86
2022/01/20 07:27:41;;;;;;;11.75;3.20;;;;;;;3.21;80.49;100761.13;5083952;28;20131;-86
2022/01/20 07:30:07;;;;;;;17.73;3.72;;;;;;;2.80;82.10;100766.06;5088270;28;20112;-86
2022/01/20 07:32:32;;;;;;;9.80;2.35;;;;;;;3.18;79.94;100760.66;5071068;28;20036;-87
2022/01/20 07:34:59;;;;;;;30.27;3.53;;;;;;;3.06;78.15;100763.84;5070593;28;20423;-86
2022/01/20 07:37:24;;;;;;;19.73;2.22;;;;;;;3.15;78.69;100768.09;5072391;28;20114;-87
2022/01/20 07:39:49;;;;;;;14.32;4.22;;;;;;;3.08;79.09;100759.13;5089048;28;20118;-86
2022/01/20 07:42:15;;;;;;;12.02;3.33;;;;;;;3.12;76.66;100759.56;5090072;28;20053;-86
2022/01/20 07:44:40;;;;;;;9.52;2.22;;;;;;;2.55;77.90;100773.59;5107343;28;20039;-86
2022/01/20 07:47:05;;;;;;;5.75;1.88;;;;;;;2.74;77.81;100790.22;5075870;28;20035;-86
2022/01/20 07:49:31;;;;;;;8.95;2.45;;;;;;;2.78;78.19;100781.56;5089354;28;20028;-86
2022/01/20 07:51:56;;;;;;;9.73;3.90;;;;;;;2.90;77.54;100784.63;5089564;28;20024;-86
2022/01/20 07:54:21;;;;;;;13.93;3.83;;;;;;;3.01;76.83;100788.66;5090049;28;20449;-86
2022/01/20 07:56:49;;;;;;;22.02;4.75;;;;;;;3.00;76.34;100802.34;5088638;28;20841;-86
2022/01/20 07:59:14;;;;;;;14.95;3.03;;;;;;;3.03;74.93;100808.19;5089408;28;20039;-86
2022/01/20 08:01:40;;;;;;;11.52;2.45;;;;;;;3.20;75.23;100817.91;5087781;28;20463;-86
2022/01/20 08:04:05;;;;;;;16.55;3.97;;;;;;;3.01;74.41;100812.09;5089949;28;20027;-85
2022/01/20 08:06:30;;;;;;;8.13;3.08;;;;;;;3.21;74.54;100806.94;5087978;28;20028;-86
2022/01/20 08:08:56;;;;;;;8.65;2.33;;;;;;;3.01;74.14;100809.41;5089006;28;20027;-86
2022/01/20 08:11:22;;;;;;;10.27;2.83;;;;;;;2.98;74.09;100805.22;5088927;28;20035;-87
2022/01/20 08:13:47;;;;;;;12.75;4.40;;;;;;;2.76;73.61;100801.63;5077367;28;20008;-85
2022/01/20 08:16:13;;;;;;;14.38;2.90;;;;;;;2.93;74.15;100796.84;5089445;28;20390;-86
2022/01/20 08:18:38;;;;;;;7.60;2.15;;;;;;;2.82;73.73;100802.72;5087314;28;20085;-86
2022/01/20 08:21:04;;;;;;;10.63;2.47;;;;;;;2.68;74.24;100813.34;5089718;28;20334;-85
2022/01/20 08:23:29;;;;;;;13.07;2.72;;;;;;;2.65;74.65;100801.06;5069954;28;20024;-85
2022/01/20 08:26:10;;;;;;;9.40;3.13;;;;;;;3.09;74.43;100809.28;5088694;28;20027;-86
2022/01/20 08:28:35;;;;;;;7.20;1.60;;;;;;;3.17;74.68;100818.28;5085335;28;20279;-86
2022/01/20 08:31:00;;;;;;;17.05;3.03;;;;;;;3.28;73.77;100817.78;5079030;28;20077;-85
2022/01/20 08:33:26;;;;;;;9.65;2.67;;;;;;;2.81;74.55;100828.81;5089228;28;20530;-87
2022/01/20 08:35:51;;;;;;;8.07;2.05;;;;;;;2.98;76.00;100813.31;5087925;28;20060;-85
2022/01/20 08:38:16;;;;;;;12.68;4.43;;;;;;;3.40;75.06;100823.50;5089765;28;20464;-86
2022/01/20 08:40:44;;;;;;;7.07;1.92;;;;;;;3.28;73.12;100839.34;5087387;28;20028;-85
2022/01/20 08:43:10;;;;;;;28.70;4.30;;;;;;;3.08;75.14;100836.41;5076608;28;20095;-86
2022/01/20 08:45:37;;;;;;;15.68;3.45;;;;;;;3.54;73.46;100821.78;5108064;28;20410;-86
2022/01/20 08:48:03;;;;;;;12.32;3.22;;;;;;;3.61;73.39;100828.09;5089387;28;20048;-86
2022/01/20 08:50:30;;;;;;;9.18;2.95;;;;;;;3.39;73.05;100819.16;5088514;28;20503;-87
2022/01/20 08:52:56;;;;;;;12.07;3.17;;;;;;;3.38;72.36;100829.09;5087901;28;20031;-86
2022/01/20 08:55:23;;;;;;;10.60;3.72;;;;;;;3.64;71.97;100826.06;5089010;28;20020;-86
2022/01/20 08:57:49;;;;;;;17.88;3.50;;;;;;;3.80;72.93;100830.34;5077831;28;20028;-83
2022/01/20 09:00:16;;;;;;;8.20;3.03;;;;;;;3.65;72.97;100833.09;5070620;28;20023;-86
2022/01/20 09:02:42;;;;;;;18.33;4.22;;;;;;;3.54;71.44;100840.66;5087802;28;20136;-86
2022/01/20 09:05:08;;;;;;;17.27;2.83;;;;;;;3.62;72.33;100831.66;5088461;28;20080;-86
2022/01/20 09:07:33;;;;;;;16.92;4.38;;;;;;;3.56;72.32;100846.72;5087911;28;20489;-86
2022/01/20 09:10:00;;;;;;;21.33;3.80;;;;;;;3.48;71.75;100852.22;5087622;28;20017;-86
2022/01/20 09:17:42;;;;;;;12.30;2.60;;;;;;;3.49;72.75;100872.78;5086844;28;20055;-85
2022/01/20 09:20:08;;;;;;;13.45;3.25;;;;;;;3.51;72.48;100862.63;5073625;28;20260;-87
2022/01/20 09:22:33;;;;;;;11.95;2.80;;;;;;;3.68;73.42;100870.50;5087458;28;20473;-86
2022/01/20 09:25:12;;;;;;;20.30;4.50;;;;;;;3.43;72.23;100862.75;5084348;28;20471;-86
2022/01/20 09:27:37;;;;;;;13.70;2.38;;;;;;;3.15;72.34;100869.69;5085732;28;20109;-86
2022/01/20 09:30:04;;;;;;;10.15;3.17;;;;;;;3.40;74.00;100858.56;5088403;28;20020;-87
2022/01/20 09:32:32;;;;;;;13.75;3.45;;;;;;;3.28;73.97;100860.91;5086049;28;20487;-86
2022/01/20 09:34:58;;;;;;;9.90;3.67;;;;;;;3.40;71.72;100863.16;5088615;28;20052;-87
2022/01/20 09:37:23;;;;;;;11.55;2.65;;;;;;;3.39;73.42;100870.38;5073885;28;20032;-85
2022/01/20 09:39:49;;;;;;;12.43;3.15;;;;;;;3.48;72.26;100865.69;5087704;28;20012;-84
2022/01/20 09:42:15;;;;;;;7.00;2.03;;;;;;;3.82;72.30;100866.88;5083367;28;20449;-87
2022/01/20 09:44:45;;;;;;;10.15;2.22;;;;;;;3.53;72.39;100867.84;5103869;28;20037;-85
2022/01/20 09:47:11;;;;;;;7.40;2.17;;;;;;;3.72;72.55;100867.19;5077727;28;20024;-86
2022/01/20 09:49:38;;;;;;;8.75;3.30;;;;;;;3.76;70.82;100875.78;5086605;28;20020;-86
2022/01/20 09:52:03;;;;;;;7.97;2.25;;;;;;;3.72;71.60;100877.19;5087888;28;20556;-86
2022/01/20 09:54:29;;;;;;;12.15;3.13;;;;;;;4.11;70.71;100874.22;5085527;28;20374;-87
2022/01/20 09:59:38;;;;;;;10.93;2.72;;;;;;;3.68;71.61;100892.06;5083311;28;20387;-86
2022/01/20 10:02:09;;;;;;;13.10;2.63;;;;;;;3.77;71.07;100890.91;5085647;28;20020;-84
2022/01/20 10:04:35;;;;;;;16.60;5.88;;;;;;;3.53;72.02;100895.66;5068312;28;20522;-86
2022/01/20 10:07:04;;;;;;;6.63;3.00;;;;;;;3.51;71.43;100900.38;5066509;28;20115;-85
2022/01/20 10:09:34;;;;;;;13.02;4.13;;;;;;;3.45;71.86;100903.84;5086821;28;20035;-86
2022/01/20 10:11:59;;;;;;;11.43;3.35;;;;;;;3.62;74.07;100899.88;5080790;28;20175;-89
2022/01/20 10:14:25;;;;;;;12.98;2.72;;;;;;;3.71;72.33;100891.69;5085966;28;20479;-85
2022/01/20 10:16:52;;;;;;;12.43;2.85;;;;;;;3.94;72.69;100913.09;5087365;28;20044;-86
2022/01/20 10:19:28;;;;;;;9.13;2.70;;;;;;;3.72;70.39;100904.97;5085802;28;20024;-86
2022/01/20 10:21:53;;;;;;;9.02;3.15;;;;;;;3.59;72.72;100911.06;5086412;28;20050;-86
2022/01/20 10:24:19;;;;;;;9.13;2.55;;;;;;;3.60;71.51;100907.34;5085306;28;20049;-86
2022/01/20 10:26:49;;;;;;;7.78;3.22;;;;;;;3.71;70.50;100905.16;5087482;28;20115;-86
2022/01/20 10:29:15;;;;;;;13.95;4.40;;;;;;;4.14;71.63;100915.16;5086211;28;20446;-87
2022/01/20 10:31:46;;;;;;;12.07;3.08;;;;;;;3.91;69.98;100915.31;5086365;28;20020;-86
2022/01/20 10:34:30;;;;;;;7.63;2.00;;;;;;;4.30;70.41;100915.91;5086950;28;20488;-86
2022/01/20 10:36:59;;;;;;;12.45;2.88;;;;;;;4.10;69.55;100921.97;5085352;28;20434;-86
2022/01/20 10:39:40;;;;;;;9.32;2.42;;;;;;;4.23;70.44;100920.44;5086592;28;20039;-85
2022/01/20 10:42:11;;;;;;;7.20;1.70;;;;;;;3.65;70.88;100936.44;5082799;28;20483;-86
2022/01/20 10:44:57;;;;;;;8.00;2.72;;;;;;;3.73;70.32;100943.59;5086143;28;20035;-86
2022/01/20 10:47:25;;;;;;;13.05;3.60;;;;;;;4.01;71.23;100952.81;5086392;28;20036;-84
2022/01/20 10:49:51;;;;;;;19.40;2.42;;;;;;;3.72;71.29;100950.03;5084864;28;20081;-86
2022/01/20 10:52:22;;;;;;;9.48;1.92;;;;;;;3.77;71.44;100960.22;5086213;28;20375;-86
2022/01/20 10:54:52;;;;;;;11.90;2.17;;;;;;;3.85;71.08;100960.94;5065060;28;20106;-86
2022/01/20 10:57:27;;;;;;;9.70;2.80;;;;;;;4.01;70.93;100950.94;5066446;28;20880;-86
2022/01/20 11:00:02;;;;;;;8.15;2.40;;;;;;;3.83;72.04;100944.13;5066957;28;20090;-86
2022/01/20 11:02:29;;;;;;;15.32;3.53;;;;;;;3.80;72.16;100938.28;5065194;28;20016;-86
2022/01/20 11:05:16;;;;;;;6.72;1.95;;;;;;;3.70;69.92;100939.38;5069698;28;20624;-85
2022/01/20 11:07:43;;;;;;;7.20;1.88;;;;;;;4.00;71.27;100929.53;5084888;28;20067;-86
2022/01/20 11:10:10;;;;;;;12.43;3.45;;;;;;;4.25;70.35;100924.59;5086629;28;20031;-86
2022/01/20 11:12:35;;;;;;;8.02;2.33;;;;;;;4.68;69.62;100922.84;5087370;28;20027;-87
2022/01/20 11:15:06;;;;;;;11.77;2.45;;;;;;;4.18;70.65;100918.28;5106436;28;20016;-86
2022/01/20 11:20:29;;;;;;;7.65;2.20;;;;;;;4.16;68.88;100914.97;5098851;28;20042;-86
2022/01/20 11:23:02;;;;;;;10.98;2.05;;;;;;;4.14;70.35;100927.81;5086428;28;20115;-85
2022/01/20 11:25:30;;;;;;;11.85;2.33;;;;;;;4.20;70.04;100921.63;5067746;28;20028;-86
2022/01/20 11:28:08;;;;;;;20.27;3.33;;;;;;;4.18;69.85;100918.28;5084933;28;20381;-86
2022/01/20 11:30:38;;;;;;;19.75;4.45;;;;;;;3.78;71.11;100922.28;5086634;28;20024;-85
2022/01/20 11:33:10;;;;;;;12.02;2.53;;;;;;;4.23;70.26;100913.13;5083159;28;20028;-86
2022/01/20 11:35:51;;;;;;;14.77;2.42;;;;;;;3.97;70.01;100909.16;5085868;28;20040;-86
2022/01/20 11:38:47;;;;;;;7.63;2.92;;;;;;;4.36;68.73;100901.63;5086211;28;20058;-86
2022/01/20 11:41:14;;;;;;;14.07;4.32;;;;;;;4.29;69.75;100904.25;5085012;28;20028;-85
2022/01/20 11:44:13;;;;;;;6.18;2.95;;;;;;;4.46;68.84;100906.69;5096287;28;20148;-86
2022/01/20 11:46:44;;;;;;;13.32;3.10;;;;;;;4.55;68.71;100907.38;5089530;28;20032;-86
2022/01/20 11:49:12;;;;;;;11.05;3.00;;;;;;;4.42;70.08;100908.09;5085095;28;20031;-87
2022/01/20 11:51:52;;;;;;;6.97;2.63;;;;;;;4.04;68.48;100912.78;5086096;28;20383;-87
2022/01/20 11:54:41;;;;;;;9.13;3.30;;;;;;;4.24;68.21;100898.63;5083951;28;20024;-86
2022/01/20 11:57:13;;;;;;;8.43;2.17;;;;;;;4.00;68.39;100903.41;5085522;28;20032;-86
2022/01/20 11:59:44;;;;;;;5.80;1.90;;;;;;;4.26;68.48;100911.94;5098145;28;20023;-86
2022/01/20 12:02:22;;;;;;;10.05;3.08;;;;;;;4.31;68.29;100901.41;5094075;28;20012;-85
2022/01/20 12:04:51;;;;;;;9.77;2.70;;;;;;;3.96;66.97;100894.84;5081095;28;20032;-87
2022/01/20 12:07:28;;;;;;;10.50;3.78;;;;;;;3.48;68.30;100908.84;5082875;28;20032;-86
2022/01/20 12:10:05;;;;;;;15.30;4.57;;;;;;;3.74;69.22;100899.41;5085467;28;20020;-86
2022/01/20 12:12:31;;;;;;;18.92;4.47;;;;;;;4.06;68.66;100899.94;5084770;28;20028;-85
2022/01/20 12:15:10;;;;;;;9.32;3.63;;;;;;;3.79;68.89;100898.81;5106312;28;20034;-86
2022/01/20 12:17:37;;;;;;;9.98;3.08;;;;;;;4.37;68.17;100906.00;5088762;28;20390;-86
2022/01/20 12:20:04;;;;;;;7.25;2.10;;;;;;;4.23;68.40;100904.22;5100901;28;20118;-86
2022/01/20 12:22:29;;;;;;;9.95;2.97;;;;;;;3.61;71.08;100903.63;5081177;28;20088;-85
2022/01/20 12:24:56;;;;;;;9.82;4.10;;;;;;;3.91;71.13;100896.44;5105345;28;20110;-85
2022/01/20 12:27:23;;;;;;;12.02;3.20;;;;;;;3.45;72.71;100895.75;5109363;28;20046;-85
2022/01/20 12:29:50;;;;;;;11.45;2.75;;;;;;;4.02;72.41;100904.03;5108472;28;20019;-85
2022/01/20 12:35:19;;;;;;;7.53;2.63;;;;;;;4.29;69.36;100898.88;5105965;28;20116;-86
2022/01/20 12:37:45;;;;;;;7.80;2.13;;;;;;;3.90;69.66;100910.97;5087842;28;20024;-87
2022/01/20 12:40:22;;;;;;;6.53;2.58;;;;;;;4.11;69.77;100912.81;5089550;28;20490;-86
2022/01/20 12:42:48;;;;;;;8.93;3.38;;;;;;;4.14;70.33;100908.91;5088298;28;20112;-86
2022/01/20 12:48:14;;;;;;;11.45;2.47;;;;;;;4.46;68.56;100886.94;5086410;28;20081;-86
2022/01/20 12:50:51;;;;;;;7.50;1.98;;;;;;;4.49;69.81;100881.16;5087679;28;20089;-86
2022/01/20 12:53:18;;;;;;;10.50;2.30;;;;;;;4.42;69.20;100878.41;5088301;28;20475;-86
2022/01/20 12:55:52;;;;;;;15.50;4.32;;;;;;;4.05;70.20;100873.94;5068651;28;20057;-87
2022/01/20 12:58:18;;;;;;;6.25;2.20;;;;;;;3.96;70.31;100873.28;5087946;28;20030;-86
2022/01/20 13:00:44;;;;;;;7.20;2.40;;;;;;;3.99;68.03;100872.03;5071018;28;20020;-87
2022/01/20 13:03:09;;;;;;;20.38;3.50;;;;;;;4.23;69.42;100861.03;5087922;28;20754;-86